Forside
METAR-TAF:

METAR-TAF

Lufthavne :

Tri-County Regional Airport

Lone Rock, Wisconsin, USA

Breddekreds: 43-12-43N, længdekreds: 090-10-53W, højde: 219 m

Aktuelle vejr

Denne rapport blev lavet for 19 minutter siden, kl. 08:56 UTC
Vind 6 kt fra nord
Temperatur -2°C
Fugtighed 93%
Tryk 1015 hPa
Sigt: 6.4 km
Overskyet i en højde af 800 ft
dis

METAR: KLNR 130856Z AUTO 35006KT 4SM BR OVC008 M02/M03 A2998 RMK AO2 SLP156 T10171033 54000

Tid: 03:15 (09:15 UTC)


TAF: fraværende

Vejrobservationer og prognoser fra mere end 4000 lufthavne (METAR og TAF).

De gule og røde prikker repræsenterer de meteorologiske stationer.

Flyt musen over at se navnet på stationen.

Så klik over at se vejr observationer og prognoser.

At skifte det kort: Klik på de grønne knapper med et sort kors for at zoome ind; på den grønne knap med en bindestreg for at zoome ud; eller på de grønne pile for tilstødende kort.


METAR-TAF: